Time;durP1;ratioP1;P1;durP2;ratioP2;P2;SDS_P1;SDS_P2;PMS_P1;PMS_P2;Temp;Humidity;BMP_temperature;BMP_pressure;BME280_temperature;BME280_humidity;BME280_pressure;Samples;Min_cycle;Max_cycle;Signal;HPM_P1;HPM_P2
2023/09/12 00:04:29;;;;;;;14.93;13.50;;;22.80;36.20;;;;;;10395625;28;20233;-70
2023/09/12 00:09:33;;;;;;;13.03;12.03;;;22.70;36.50;;;;;;10398357;28;20936;-70
2023/09/12 00:14:37;;;;;;;15.30;14.00;;;22.50;37.00;;;;;;10394583;28;20244;-70
2023/09/12 00:19:40;;;;;;;13.73;12.53;;;22.50;37.00;;;;;;10398629;28;20282;-70
2023/09/12 00:24:45;;;;;;;14.83;13.60;;;22.40;37.00;;;;;;10398883;28;20245;-70
2023/09/12 00:29:48;;;;;;;14.00;12.90;;;22.40;37.70;;;;;;10402872;28;20325;-70
2023/09/12 00:34:51;;;;;;;12.93;11.87;;;22.30;37.10;;;;;;10402764;28;20221;-70
2023/09/12 00:39:56;;;;;;;15.43;14.03;;;22.20;37.30;;;;;;10400370;28;20228;-70
2023/09/12 00:44:59;;;;;;;14.10;12.90;;;22.20;38.00;;;;;;10400921;28;20744;-70
2023/09/12 00:50:03;;;;;;;13.47;12.43;;;22.10;37.40;;;;;;10404019;28;20229;-70
2023/09/12 00:55:08;;;;;;;12.60;11.60;;;22.00;37.50;;;;;;10405046;28;20228;-70
2023/09/12 01:00:14;;;;;;;13.13;11.77;;;21.90;38.90;;;;;;10408013;28;20270;-70
2023/09/12 01:05:18;;;;;;;12.90;11.90;;;21.90;38.20;;;;;;10402950;28;20233;-71
2023/09/12 01:10:22;;;;;;;11.53;10.47;;;21.90;38.20;;;;;;10403251;28;20234;-71
2023/09/12 01:15:26;;;;;;;12.50;11.30;;;21.90;38.20;;;;;;10402669;28;20236;-71
2023/09/12 01:20:32;;;;;;;12.80;11.50;;;22.00;38.00;;;;;;10405878;28;20238;-71
2023/09/12 01:26:08;;;;;;;13.10;12.00;;;22.00;38.30;;;;;;10409718;28;20233;-71
2023/09/12 01:31:14;;;;;;;12.50;11.50;;;22.00;38.30;;;;;;10409838;28;20882;-71
2023/09/12 01:36:17;;;;;;;13.27;12.20;;;22.00;38.30;;;;;;10405509;28;20909;-70
2023/09/12 01:41:21;;;;;;;12.80;11.37;;;22.10;38.20;;;;;;10405478;28;20274;-71
2023/09/12 01:46:27;;;;;;;14.33;13.20;;;22.00;37.90;;;;;;10401356;28;20233;-71
2023/09/12 01:51:31;;;;;;;13.70;12.60;;;21.90;38.20;;;;;;10399364;28;20317;-71
2023/09/12 01:56:34;;;;;;;13.03;11.73;;;21.80;38.10;;;;;;10402078;28;20792;-71
2023/09/12 02:01:39;;;;;;;14.53;13.20;;;21.70;38.00;;;;;;10404737;28;20328;-70
2023/09/12 02:06:42;;;;;;;14.60;13.20;;;21.70;38.00;;;;;;10398326;28;20229;-70
2023/09/12 02:11:46;;;;;;;13.77;12.63;;;21.60;38.00;;;;;;10406730;28;20740;-70
2023/09/12 02:16:50;;;;;;;13.27;12.07;;;21.60;37.90;;;;;;10401962;28;20313;-70
2023/09/12 02:21:54;;;;;;;13.00;11.90;;;21.60;38.00;;;;;;10404779;28;20938;-70
2023/09/12 02:26:57;;;;;;;12.43;11.33;;;21.60;37.90;;;;;;10406598;28;20226;-70
2023/09/12 02:32:02;;;;;;;12.87;11.73;;;21.60;37.90;;;;;;10403258;28;21184;-70
2023/09/12 02:37:06;;;;;;;13.73;12.50;;;21.60;37.90;;;;;;10400925;28;20604;-70
2023/09/12 02:42:09;;;;;;;12.33;11.33;;;21.70;38.00;;;;;;10403356;28;20275;-70
2023/09/12 02:47:13;;;;;;;13.40;12.20;;;21.60;37.90;;;;;;10402219;28;20267;-70
2023/09/12 02:52:16;;;;;;;11.53;10.63;;;21.60;37.90;;;;;;10404901;28;20664;-70
2023/09/12 02:57:20;;;;;;;12.20;11.10;;;21.60;37.90;;;;;;10399055;28;20288;-70
2023/09/12 03:02:24;;;;;;;11.63;10.53;;;21.60;37.90;;;;;;10401460;28;20718;-70
2023/09/12 03:07:28;;;;;;;11.83;10.83;;;21.60;38.00;;;;;;10401511;28;20800;-70
2023/09/12 03:12:31;;;;;;;11.47;10.57;;;21.50;37.80;;;;;;10399513;28;20235;-70
2023/09/12 03:17:36;;;;;;;13.60;12.50;;;21.50;37.80;;;;;;10399438;28;20581;-70
2023/09/12 03:22:39;;;;;;;12.23;11.23;;;21.50;38.30;;;;;;10401485;28;20287;-71
2023/09/12 03:27:42;;;;;;;12.67;11.63;;;21.40;37.70;;;;;;10399080;28;20229;-70
2023/09/12 03:32:47;;;;;;;11.37;10.40;;;21.30;37.70;;;;;;10402278;28;20228;-70
2023/09/12 03:37:50;;;;;;;12.47;11.37;;;21.20;38.40;;;;;;10404020;28;20216;-70
2023/09/12 03:42:54;;;;;;;10.57;9.70;;;21.10;38.30;;;;;;10396738;28;20240;-70
2023/09/12 03:47:59;;;;;;;13.00;11.90;;;21.10;38.30;;;;;;10398576;28;20233;-70
2023/09/12 03:53:02;;;;;;;12.37;11.30;;;21.00;38.70;;;;;;10402543;28;20237;-70
2023/09/12 03:58:06;;;;;;;10.90;9.83;;;20.90;38.40;;;;;;10399569;28;20228;-70
2023/09/12 04:03:10;;;;;;;12.83;11.77;;;20.80;38.70;;;;;;10402281;28;20229;-70
2023/09/12 04:08:14;;;;;;;11.17;10.27;;;20.80;39.40;;;;;;10406185;28;20229;-70
2023/09/12 04:13:17;;;;;;;11.60;10.67;;;20.70;39.00;;;;;;10398007;28;20233;-73
2023/09/12 04:18:21;;;;;;;11.70;10.70;;;20.60;39.00;;;;;;10408431;28;20317;-70
2023/09/12 04:23:26;;;;;;;11.60;10.70;;;20.60;39.30;;;;;;10403278;28;20348;-70
2023/09/12 04:28:29;;;;;;;10.97;9.90;;;20.60;39.10;;;;;;10401931;28;20236;-70
2023/09/12 04:33:33;;;;;;;10.93;10.03;;;20.60;39.00;;;;;;10408337;28;20228;-69
2023/09/12 04:38:37;;;;;;;10.67;9.83;;;20.60;39.40;;;;;;10404663;28;20781;-69
2023/09/12 04:43:40;;;;;;;10.93;10.03;;;20.60;39.10;;;;;;10404471;28;20233;-69
2023/09/12 04:48:44;;;;;;;10.97;10.03;;;20.60;39.10;;;;;;10410625;28;20225;-69
2023/09/12 04:53:51;;;;;;;10.33;9.50;;;20.60;39.30;;;;;;10403545;28;21603;-69
2023/09/12 04:58:55;;;;;;;10.43;9.43;;;20.60;39.00;;;;;;10406848;28;20770;-69
2023/09/12 05:03:59;;;;;;;11.47;10.57;;;20.60;38.90;;;;;;10407267;28;20402;-69
2023/09/12 05:09:05;;;;;;;11.03;10.03;;;20.70;39.30;;;;;;10408987;28;20236;-69
2023/09/12 05:14:08;;;;;;;11.17;10.20;;;20.60;39.60;;;;;;10402558;28;20221;-69
2023/09/12 05:19:13;;;;;;;10.77;9.80;;;20.70;39.40;;;;;;10400107;28;20233;-69
2023/09/12 05:24:16;;;;;;;10.87;9.97;;;20.70;40.30;;;;;;10405486;28;20244;-69
2023/09/12 05:29:19;;;;;;;11.33;10.33;;;20.80;39.40;;;;;;10403634;28;20226;-68
2023/09/12 05:34:24;;;;;;;11.07;10.07;;;20.80;39.40;;;;;;10403673;28;20268;-70
2023/09/12 05:39:27;;;;;;;10.70;9.60;;;20.80;39.70;;;;;;10401505;28;20340;-70
2023/09/12 05:44:30;;;;;;;11.57;10.67;;;20.80;39.50;;;;;;10400931;28;20237;-69
2023/09/12 05:49:35;;;;;;;10.57;9.67;;;20.80;39.60;;;;;;10412016;28;20233;-69
2023/09/12 05:54:38;;;;;;;14.67;13.40;;;20.80;40.00;;;;;;10405371;28;20240;-70
2023/09/12 05:59:41;;;;;;;13.40;12.30;;;20.90;40.20;;;;;;10403887;28;20775;-69
2023/09/12 06:04:46;;;;;;;13.10;11.90;;;20.90;40.10;;;;;;10398828;28;20225;-70
2023/09/12 06:09:49;;;;;;;12.73;11.53;;;20.90;40.70;;;;;;10403722;28;20306;-69
2023/09/12 06:14:55;;;;;;;11.33;10.33;;;20.90;40.50;;;;;;10403296;28;20221;-68
2023/09/12 06:19:59;;;;;;;12.23;11.23;;;20.90;40.50;;;;;;10400441;28;20238;-69
2023/09/12 06:25:03;;;;;;;11.57;10.70;;;20.90;41.20;;;;;;10401324;28;20370;-69
2023/09/12 06:30:10;;;;;;;15.60;14.20;;;21.00;40.90;;;;;;10405471;28;20915;-70
2023/09/12 06:35:15;;;;;;;15.67;14.30;;;21.00;41.50;;;;;;10402760;28;20228;-69
2023/09/12 06:40:18;;;;;;;14.87;13.40;;;21.00;42.20;;;;;;10403125;28;20236;-70
2023/09/12 06:45:21;;;;;;;16.20;14.53;;;21.10;41.80;;;;;;10404605;28;20229;-70
2023/09/12 06:50:25;;;;;;;15.97;14.47;;;21.10;42.20;;;;;;10402435;28;20371;-69
2023/09/12 06:55:35;;;;;;;15.60;14.27;;;21.20;43.20;;;;;;10399864;28;20220;-69
2023/09/12 07:00:38;;;;;;;16.80;15.40;;;21.30;42.80;;;;;;10405726;28;20229;-69
2023/09/12 07:05:44;;;;;;;16.80;15.30;;;21.40;43.10;;;;;;10398756;28;20225;-70
2023/09/12 07:10:47;;;;;;;16.60;15.20;;;21.50;44.60;;;;;;10406525;28;20228;-69
2023/09/12 07:15:51;;;;;;;17.13;15.73;;;21.70;43.60;;;;;;10397935;28;20701;-69
2023/09/12 07:20:59;;;;;;;17.90;16.43;;;21.80;43.90;;;;;;10398806;28;20986;-69
2023/09/12 07:26:03;;;;;;;16.80;15.30;;;21.90;45.40;;;;;;10401582;28;20237;-70
2023/09/12 07:31:06;;;;;;;17.17;15.57;;;22.10;44.10;;;;;;10404549;28;20302;-69
2023/09/12 07:36:12;;;;;;;16.20;14.90;;;22.30;44.40;;;;;;10398559;28;20238;-69
2023/09/12 07:41:15;;;;;;;15.53;14.23;;;22.50;44.60;;;;;;10400338;28;20251;-68
2023/09/12 07:46:18;;;;;;;14.90;13.80;;;22.80;44.30;;;;;;10401346;28;20355;-68
2023/09/12 07:51:24;;;;;;;15.40;14.17;;;23.00;44.50;;;;;;10401288;28;20430;-69
2023/09/12 07:56:27;;;;;;;14.67;13.43;;;23.20;45.20;;;;;;10408573;28;20233;-69
2023/09/12 08:01:30;;;;;;;14.77;13.57;;;23.50;44.60;;;;;;10408339;28;20240;-69
2023/09/12 08:06:35;;;;;;;14.60;13.40;;;23.80;44.40;;;;;;10409397;28;20366;-69
2023/09/12 08:11:58;;;;;;;14.17;12.97;;;24.10;44.40;;;;;;10406991;28;20225;-69
2023/09/12 08:17:03;;;;;;;13.27;12.27;;;24.40;44.00;;;;;;10408025;28;20855;-69
2023/09/12 08:22:08;;;;;;;13.23;12.23;;;24.70;43.80;;;;;;10407871;28;20225;-69
2023/09/12 08:27:12;;;;;;;13.90;12.77;;;25.00;43.70;;;;;;10405800;28;20229;-69
2023/09/12 08:32:15;;;;;;;13.53;12.33;;;25.30;43.00;;;;;;10404409;28;20229;-69
2023/09/12 08:37:20;;;;;;;13.13;12.03;;;25.60;43.00;;;;;;10402533;28;20217;-69
2023/09/12 08:42:24;;;;;;;12.70;11.77;;;25.90;42.00;;;;;;10406635;28;20229;-69
2023/09/12 08:47:27;;;;;;;12.87;11.73;;;26.10;41.90;;;;;;10402634;28;20307;-69
2023/09/12 08:52:33;;;;;;;13.43;12.23;;;26.40;41.80;;;;;;10407557;28;20224;-68
2023/09/12 08:57:38;;;;;;;12.60;11.33;;;26.60;40.80;;;;;;10405356;28;20232;-69
2023/09/12 09:02:43;;;;;;;11.50;10.60;;;26.90;40.80;;;;;;10402638;28;20851;-69
2023/09/12 09:07:49;;;;;;;11.30;10.47;;;27.10;40.60;;;;;;10400283;28;20244;-70
2023/09/12 09:12:52;;;;;;;11.10;10.20;;;27.40;39.80;;;;;;10401027;28;21022;-69
2023/09/12 09:18:00;;;;;;;11.20;10.30;;;27.60;40.70;;;;;;10404288;28;20339;-68
2023/09/12 09:23:06;;;;;;;11.43;10.50;;;27.90;39.30;;;;;;10400010;28;20221;-69
2023/09/12 09:28:17;;;;;;;10.43;9.73;;;28.20;38.30;;;;;;10400025;28;20241;-69
2023/09/12 09:33:21;;;;;;;11.83;10.77;;;28.40;37.80;;;;;;10405188;28;20233;-69
2023/09/12 09:38:26;;;;;;;11.23;10.33;;;28.70;38.00;;;;;;10401024;28;20837;-69
2023/09/12 09:43:33;;;;;;;11.47;10.47;;;28.80;37.60;;;;;;10341298;28;1594642;-69
2023/09/12 09:48:36;;;;;;;10.60;9.80;;;29.00;36.40;;;;;;10400432;28;20256;-69
2023/09/12 09:53:43;;;;;;;10.77;9.87;;;29.30;37.00;;;;;;10408774;28;20736;-69
2023/09/12 09:58:51;;;;;;;9.80;9.10;;;29.40;36.30;;;;;;10404471;28;20240;-69
2023/09/12 10:03:58;;;;;;;10.47;9.67;;;29.60;35.50;;;;;;10403036;28;20237;-69
2023/09/12 10:09:06;;;;;;;10.20;9.50;;;29.80;36.00;;;;;;10405048;28;20304;-68
2023/09/12 10:14:10;;;;;;;10.07;8.80;;;29.90;35.10;;;;;;10400614;28;20228;-69
2023/09/12 10:19:17;;;;;;;10.47;9.70;;;30.10;35.30;;;;;;10405192;28;20604;-69
2023/09/12 10:24:24;;;;;;;10.73;9.73;;;30.20;34.20;;;;;;10402778;28;20221;-69
2023/09/12 10:29:27;;;;;;;9.77;8.97;;;30.40;34.80;;;;;;10400447;28;20889;-69
2023/09/12 10:34:33;;;;;;;9.43;8.80;;;30.60;34.60;;;;;;10402181;28;20229;-69
2023/09/12 10:39:38;;;;;;;9.13;8.50;;;30.80;33.60;;;;;;10404889;28;20316;-69
2023/09/12 10:44:41;;;;;;;9.10;8.43;;;30.90;32.30;;;;;;10405470;28;20276;-69
2023/09/12 10:49:45;;;;;;;9.73;8.80;;;31.10;32.90;;;;;;10397576;28;20926;-69
2023/09/12 10:54:49;;;;;;;8.87;8.17;;;31.30;32.40;;;;;;10398107;28;20637;-69
2023/09/12 11:00:12;;;;;;;9.20;8.40;;;31.40;32.50;;;;;;10399229;28;20230;-69
2023/09/12 11:05:37;;;;;;;8.00;7.40;;;31.50;32.50;;;;;;10394781;28;20240;-68
2023/09/12 11:10:42;;;;;;;8.47;7.80;;;31.60;31.80;;;;;;10405884;28;20693;-69
2023/09/12 11:16:17;;;;;;;8.20;7.50;;;31.70;30.30;;;;;;10401570;28;20257;-68
2023/09/12 11:21:32;;;;;;;8.67;7.17;;;31.80;30.20;;;;;;10398420;28;20246;-71
2023/09/12 11:26:57;;;;;;;7.77;7.27;;;31.80;29.90;;;;;;10403164;28;20236;-71
2023/09/12 11:32:02;;;;;;;7.93;7.33;;;32.00;30.00;;;;;;10401500;28;20978;-71
2023/09/12 11:37:06;;;;;;;8.17;7.47;;;32.10;30.10;;;;;;10398568;28;20228;-70
2023/09/12 11:42:13;;;;;;;8.13;7.53;;;32.20;30.40;;;;;;10398298;28;20233;-71
2023/09/12 11:47:17;;;;;;;8.30;7.70;;;32.30;28.60;;;;;;10405319;28;20239;-69
2023/09/12 11:52:21;;;;;;;7.70;7.00;;;32.40;29.20;;;;;;10387441;28;20253;-72
2023/09/12 11:57:29;;;;;;;7.67;7.10;;;32.40;29.10;;;;;;10396500;28;20229;-72
2023/09/12 12:02:33;;;;;;;7.90;7.20;;;32.40;28.60;;;;;;10400940;28;20241;-71
2023/09/12 12:07:37;;;;;;;7.63;7.13;;;32.40;28.20;;;;;;10408082;28;20328;-71
2023/09/12 12:12:45;;;;;;;7.50;6.90;;;32.40;28.50;;;;;;10402215;28;20717;-70
2023/09/12 12:17:49;;;;;;;7.37;6.77;;;32.40;27.50;;;;;;10403021;28;21121;-69
2023/09/12 12:22:52;;;;;;;7.40;6.80;;;32.50;28.20;;;;;;10406218;28;20233;-70
2023/09/12 12:27:57;;;;;;;7.47;6.77;;;32.50;27.60;;;;;;10405803;28;20320;-71
2023/09/12 12:33:03;;;;;;;7.37;6.83;;;32.50;26.80;;;;;;10402153;28;20240;-71
2023/09/12 12:38:26;;;;;;;7.13;6.53;;;32.50;26.50;;;;;;10405402;28;20986;-70
2023/09/12 12:43:31;;;;;;;6.73;6.10;;;32.50;26.80;;;;;;10412268;28;20233;-70
2023/09/12 12:48:36;;;;;;;7.80;6.90;;;32.50;26.30;;;;;;10408881;28;20364;-70
2023/09/12 12:53:40;;;;;;;7.17;6.67;;;32.50;26.60;;;;;;10411567;28;20229;-70
2023/09/12 12:58:58;;;;;;;6.90;6.30;;;32.60;26.90;;;;;;10412617;28;20232;-70
2023/09/12 13:04:01;;;;;;;7.23;6.70;;;32.70;25.50;;;;;;10408645;28;20344;-70
2023/09/12 13:09:06;;;;;;;6.67;6.23;;;32.70;26.60;;;;;;10410487;28;20299;-70
2023/09/12 13:14:11;;;;;;;7.27;6.63;;;32.70;26.00;;;;;;10410991;28;20289;-70
2023/09/12 13:19:15;;;;;;;6.87;6.37;;;32.70;25.90;;;;;;10413189;28;20781;-70
2023/09/12 13:24:18;;;;;;;7.40;6.80;;;32.70;25.70;;;;;;10411394;28;20238;-70
2023/09/12 13:29:22;;;;;;;6.80;6.20;;;32.80;25.40;;;;;;10411236;28;20574;-70
2023/09/12 13:34:26;;;;;;;7.23;6.63;;;32.70;25.40;;;;;;10409527;28;20232;-70
2023/09/12 13:39:29;;;;;;;7.03;6.53;;;32.70;25.10;;;;;;10410904;28;20233;-70
2023/09/12 13:44:33;;;;;;;7.13;6.50;;;32.70;25.10;;;;;;10410613;28;20216;-70
2023/09/12 13:49:37;;;;;;;7.33;6.83;;;32.80;24.40;;;;;;10409250;28;20847;-70
2023/09/12 13:54:40;;;;;;;6.90;6.40;;;32.80;24.90;;;;;;10411806;28;20226;-70
2023/09/12 13:59:45;;;;;;;7.03;6.27;;;32.80;24.80;;;;;;10411314;28;20295;-70
2023/09/12 14:04:49;;;;;;;6.97;6.43;;;32.80;24.20;;;;;;10412551;28;20223;-70
2023/09/12 14:10:05;;;;;;;7.47;6.80;;;32.80;24.40;;;;;;10412092;28;20299;-70
2023/09/12 14:15:14;;;;;;;7.27;6.73;;;32.90;24.30;;;;;;10410947;28;20213;-70
2023/09/12 14:20:18;;;;;;;7.10;6.50;;;32.90;23.70;;;;;;10408882;28;20254;-70
2023/09/12 14:25:21;;;;;;;6.97;6.47;;;33.00;24.20;;;;;;10408831;28;20239;-70
2023/09/12 14:30:34;;;;;;;7.10;6.60;;;33.00;23.90;;;;;;10409010;28;20311;-70
2023/09/12 14:35:37;;;;;;;7.20;6.70;;;33.00;23.80;;;;;;10407347;28;20312;-70
2023/09/12 14:40:41;;;;;;;7.03;6.50;;;33.00;23.80;;;;;;10409847;28;20230;-70
2023/09/12 14:45:49;;;;;;;6.87;6.47;;;33.10;23.70;;;;;;10416060;28;20251;-70
2023/09/12 14:50:52;;;;;;;7.03;6.47;;;33.10;23.10;;;;;;10411070;28;20241;-71
2023/09/12 14:55:56;;;;;;;6.70;6.10;;;33.10;23.50;;;;;;10410853;28;20249;-70
2023/09/12 15:01:01;;;;;;;7.97;7.20;;;33.10;23.30;;;;;;10408478;28;20302;-70
2023/09/12 15:06:08;;;;;;;7.60;7.00;;;33.10;22.90;;;;;;10407288;28;20230;-70
2023/09/12 15:11:12;;;;;;;7.33;6.77;;;33.10;23.20;;;;;;10409174;28;20402;-70
2023/09/12 15:16:16;;;;;;;6.90;6.27;;;33.10;23.40;;;;;;10408510;28;20541;-70
2023/09/12 15:21:19;;;;;;;6.87;6.37;;;33.00;22.70;;;;;;10405717;28;20275;-70
2023/09/12 15:26:23;;;;;;;7.20;6.60;;;33.00;22.70;;;;;;10405734;28;20236;-70
2023/09/12 15:31:27;;;;;;;6.97;6.37;;;32.90;22.60;;;;;;10407910;28;20238;-70
2023/09/12 15:36:37;;;;;;;8.00;6.77;;;32.80;22.50;;;;;;10408004;28;20900;-70
2023/09/12 15:41:40;;;;;;;7.73;7.13;;;32.80;22.60;;;;;;10411010;28;20241;-70
2023/09/12 15:46:45;;;;;;;7.47;6.83;;;32.80;22.50;;;;;;10406606;28;20255;-70
2023/09/12 15:51:48;;;;;;;7.73;7.10;;;32.80;22.60;;;;;;10407902;28;20654;-70
2023/09/12 15:56:51;;;;;;;7.67;7.07;;;32.80;22.50;;;;;;10402272;28;20280;-70
2023/09/12 16:01:56;;;;;;;8.13;7.43;;;32.80;22.90;;;;;;10404241;28;20243;-70
2023/09/12 16:06:59;;;;;;;8.00;7.30;;;32.80;22.50;;;;;;10403671;28;21112;-69
2023/09/12 16:12:03;;;;;;;8.33;7.63;;;32.80;22.50;;;;;;10405385;28;20234;-70
2023/09/12 16:17:08;;;;;;;8.70;8.00;;;32.80;23.00;;;;;;10413790;28;20721;-69
2023/09/12 16:22:11;;;;;;;8.23;7.53;;;32.80;23.20;;;;;;10411195;28;20225;-69
2023/09/12 16:27:17;;;;;;;7.90;7.20;;;32.80;23.80;;;;;;10414207;28;20240;-69
2023/09/12 16:32:21;;;;;;;9.03;8.33;;;32.70;24.10;;;;;;10412577;28;20229;-69
2023/09/12 16:37:25;;;;;;;9.97;9.13;;;32.70;24.40;;;;;;10414062;28;20232;-70
2023/09/12 16:42:30;;;;;;;9.90;9.00;;;32.60;24.50;;;;;;10414030;28;20706;-69
2023/09/12 16:47:35;;;;;;;10.20;9.30;;;32.50;24.80;;;;;;10413935;28;20243;-69
2023/09/12 16:52:38;;;;;;;9.30;8.60;;;32.40;25.00;;;;;;10407063;28;20232;-70
2023/09/12 16:57:41;;;;;;;9.43;8.53;;;32.30;25.00;;;;;;10409973;28;20236;-69
2023/09/12 17:02:46;;;;;;;9.93;9.00;;;32.10;25.10;;;;;;10413623;28;20252;-70
2023/09/12 17:07:49;;;;;;;9.67;8.77;;;31.90;25.70;;;;;;10419602;28;20240;-69
2023/09/12 17:12:52;;;;;;;9.07;8.37;;;31.70;25.60;;;;;;10411901;28;20225;-69
2023/09/12 17:17:57;;;;;;;9.67;8.97;;;31.50;25.60;;;;;;10411181;28;20221;-69
2023/09/12 17:23:00;;;;;;;10.20;9.40;;;31.20;25.60;;;;;;10408061;28;20231;-69
2023/09/12 17:28:04;;;;;;;10.30;9.30;;;31.00;25.80;;;;;;10407146;28;20312;-69
2023/09/12 17:33:10;;;;;;;10.20;9.30;;;30.70;26.10;;;;;;10411595;28;20701;-68
2023/09/12 17:38:13;;;;;;;10.53;9.37;;;30.50;26.50;;;;;;10410208;28;20236;-70
2023/09/12 17:43:17;;;;;;;10.27;9.20;;;30.40;26.70;;;;;;10409638;28;20229;-71
2023/09/12 17:48:21;;;;;;;10.10;9.20;;;30.30;26.90;;;;;;10411287;28;20234;-70
2023/09/12 17:53:24;;;;;;;9.37;8.57;;;30.30;27.10;;;;;;10413093;28;20238;-70
2023/09/12 17:58:28;;;;;;;10.00;9.17;;;30.20;27.10;;;;;;10407735;28;20632;-70
2023/09/12 18:03:32;;;;;;;10.73;9.73;;;30.10;27.10;;;;;;10411957;28;20233;-71
2023/09/12 18:08:36;;;;;;;11.10;10.10;;;29.90;27.50;;;;;;10407556;28;20237;-70
2023/09/12 18:13:40;;;;;;;12.53;10.10;;;29.60;27.50;;;;;;10412192;28;20235;-71
2023/09/12 18:18:44;;;;;;;11.33;10.33;;;29.30;27.80;;;;;;10405750;28;20222;-70
2023/09/12 18:23:48;;;;;;;13.40;12.00;;;29.10;28.30;;;;;;10416557;28;20831;-70
2023/09/12 18:28:51;;;;;;;12.77;11.67;;;28.90;28.20;;;;;;10409718;28;20230;-70
2023/09/12 18:33:56;;;;;;;12.07;11.10;;;28.80;28.50;;;;;;10401467;28;20260;-70
2023/09/12 18:39:00;;;;;;;13.47;12.10;;;28.60;29.00;;;;;;10404699;28;20229;-70
2023/09/12 18:44:04;;;;;;;13.00;11.90;;;28.40;29.10;;;;;;10409292;28;20217;-71
2023/09/12 18:49:10;;;;;;;12.20;11.10;;;28.40;29.20;;;;;;10408690;28;20293;-69
2023/09/12 18:54:19;;;;;;;12.00;11.00;;;28.20;29.40;;;;;;10409674;28;20229;-71
2023/09/12 18:59:22;;;;;;;11.63;10.63;;;28.00;30.20;;;;;;10406101;28;20244;-69
2023/09/12 19:04:29;;;;;;;13.00;11.90;;;27.90;29.60;;;;;;10405486;28;20275;-70
2023/09/12 19:09:32;;;;;;;11.37;10.47;;;27.90;30.10;;;;;;10407724;28;20846;-70
2023/09/12 19:14:36;;;;;;;12.07;10.83;;;27.90;30.10;;;;;;10404938;28;20221;-69
2023/09/12 19:19:41;;;;;;;10.07;9.27;;;28.00;30.20;;;;;;10401473;28;20225;-71
2023/09/12 19:24:44;;;;;;;11.33;10.23;;;28.00;30.20;;;;;;10404508;28;20229;-69
2023/09/12 19:29:49;;;;;;;10.17;9.17;;;28.10;30.20;;;;;;10404903;28;20237;-68
2023/09/12 19:34:54;;;;;;;10.87;9.97;;;28.20;30.30;;;;;;10401918;28;21100;-70
2023/09/12 19:39:57;;;;;;;10.40;9.60;;;28.20;30.30;;;;;;10407277;28;20566;-70
2023/09/12 19:45:00;;;;;;;12.00;10.93;;;28.20;30.20;;;;;;10401013;28;20232;-71
2023/09/12 19:50:06;;;;;;;10.93;9.93;;;28.20;30.30;;;;;;10415336;28;20804;-70
2023/09/12 19:55:11;;;;;;;11.90;11.00;;;28.20;30.40;;;;;;10415042;28;20224;-71
2023/09/12 20:00:15;;;;;;;10.67;9.77;;;28.10;30.30;;;;;;10412784;28;20249;-71
2023/09/12 20:05:21;;;;;;;11.67;10.77;;;28.00;30.20;;;;;;10414756;28;21034;-71
2023/09/12 20:10:25;;;;;;;11.83;10.73;;;27.80;30.10;;;;;;10413346;28;20313;-71
2023/09/12 20:15:28;;;;;;;11.33;10.40;;;27.70;30.00;;;;;;10413480;28;20229;-71
2023/09/12 20:20:34;;;;;;;11.40;10.40;;;27.40;29.90;;;;;;10413851;28;20229;-71
2023/09/12 20:25:37;;;;;;;10.90;10.00;;;27.30;30.50;;;;;;10410456;28;20221;-72
2023/09/12 20:30:40;;;;;;;11.20;10.20;;;27.20;30.40;;;;;;10410798;28;20225;-71
2023/09/12 20:35:45;;;;;;;10.43;9.53;;;27.10;30.50;;;;;;10412642;28;20841;-71
2023/09/12 20:40:48;;;;;;;10.13;9.40;;;27.10;30.50;;;;;;10410343;28;20722;-71
2023/09/12 20:45:53;;;;;;;10.33;9.50;;;27.00;30.10;;;;;;10408465;28;20626;-71
2023/09/12 20:50:58;;;;;;;10.33;9.53;;;27.00;30.50;;;;;;10411942;28;20237;-71
2023/09/12 20:56:01;;;;;;;10.73;9.83;;;26.90;30.80;;;;;;10414373;28;20226;-71
2023/09/12 21:01:04;;;;;;;9.97;9.07;;;26.70;30.80;;;;;;10408028;28;20232;-71
2023/09/12 21:06:09;;;;;;;9.87;9.03;;;26.50;30.90;;;;;;10405366;28;20222;-71
2023/09/12 21:11:12;;;;;;;9.70;8.90;;;26.40;31.60;;;;;;10411674;28;20720;-71
2023/09/12 21:16:15;;;;;;;9.30;8.50;;;26.20;31.80;;;;;;10412880;28;20230;-72
2023/09/12 21:21:20;;;;;;;9.80;9.00;;;26.10;32.10;;;;;;10401846;28;20639;-71
2023/09/12 21:26:23;;;;;;;9.87;9.00;;;26.00;32.50;;;;;;10406908;28;20264;-71
2023/09/12 21:31:27;;;;;;;10.73;9.10;;;26.00;32.40;;;;;;10404910;28;20280;-69
2023/09/12 21:36:32;;;;;;;9.43;8.63;;;26.00;32.30;;;;;;10402308;28;20298;-70
2023/09/12 21:41:35;;;;;;;9.43;8.63;;;26.10;32.90;;;;;;10401664;28;21035;-71
2023/09/12 21:46:38;;;;;;;9.17;8.37;;;26.00;32.40;;;;;;10404582;28;21127;-69
2023/09/12 21:51:43;;;;;;;9.00;8.30;;;26.10;32.50;;;;;;10402855;28;20291;-69
2023/09/12 21:56:46;;;;;;;9.10;8.20;;;26.10;32.60;;;;;;10400623;28;20226;-71
2023/09/12 22:01:49;;;;;;;9.40;8.50;;;26.10;32.40;;;;;;10404080;28;20278;-70
2023/09/12 22:06:54;;;;;;;10.27;9.37;;;26.00;32.50;;;;;;10404271;28;20220;-71
2023/09/12 22:11:57;;;;;;;10.10;9.17;;;26.00;33.00;;;;;;10400717;28;20222;-69
2023/09/12 22:17:00;;;;;;;10.10;9.20;;;26.00;32.60;;;;;;10399113;28;20225;-69
2023/09/12 22:22:05;;;;;;;10.20;9.30;;;25.80;32.70;;;;;;10404522;28;20235;-71
2023/09/12 22:27:09;;;;;;;10.10;9.30;;;25.70;33.20;;;;;;10401732;28;20237;-71
2023/09/12 22:32:13;;;;;;;9.53;8.73;;;25.60;33.10;;;;;;10401193;28;20233;-68
2023/09/12 22:37:17;;;;;;;12.77;9.40;;;25.50;33.10;;;;;;10394109;28;20222;-72
2023/09/12 22:42:21;;;;;;;9.30;8.50;;;25.50;33.70;;;;;;10393284;28;20229;-70
2023/09/12 22:47:24;;;;;;;9.10;8.20;;;25.40;33.40;;;;;;10394379;28;20229;-69
2023/09/12 22:52:29;;;;;;;9.00;8.20;;;25.30;33.40;;;;;;10406660;28;20369;-71
2023/09/12 22:57:32;;;;;;;10.10;9.03;;;25.20;34.00;;;;;;10401492;28;20586;-71
2023/09/12 23:02:36;;;;;;;9.53;8.63;;;25.00;33.90;;;;;;10404720;28;20236;-69
2023/09/12 23:07:41;;;;;;;9.63;8.83;;;24.90;34.00;;;;;;10407594;28;20945;-70
2023/09/12 23:12:44;;;;;;;8.83;8.10;;;24.70;34.60;;;;;;10389213;28;20249;-71
2023/09/12 23:17:48;;;;;;;9.17;8.37;;;24.70;34.40;;;;;;10392760;28;20771;-70
2023/09/12 23:22:53;;;;;;;9.10;8.40;;;24.60;34.60;;;;;;10392277;28;20231;-70
2023/09/12 23:27:56;;;;;;;9.27;8.37;;;24.50;35.00;;;;;;10399406;28;20216;-70
2023/09/12 23:32:59;;;;;;;8.60;7.90;;;24.60;34.70;;;;;;10391184;28;20291;-69
2023/09/12 23:38:04;;;;;;;8.87;8.07;;;24.60;34.70;;;;;;10393883;28;20213;-69
2023/09/12 23:43:07;;;;;;;8.73;7.93;;;24.60;35.00;;;;;;10393161;28;20807;-71
2023/09/12 23:48:11;;;;;;;8.30;7.60;;;24.60;34.70;;;;;;10390433;28;20320;-70
2023/09/12 23:53:16;;;;;;;9.10;8.30;;;24.50;34.70;;;;;;10393517;28;20233;-69
2023/09/12 23:58:20;;;;;;;7.50;7.00;;;24.50;35.20;;;;;;10391138;28;21121;-71
